createdAt,value
2023-01-02T00:01:03.642Z,98.30
2023-01-02T00:03:30.555Z,98.30
2023-01-02T00:05:57.531Z,98.30
2023-01-02T00:08:24.265Z,98.30
2023-01-02T00:10:53.066Z,98.30
2023-01-02T00:13:20.454Z,98.30
2023-01-02T00:15:47.373Z,98.30
2023-01-02T00:18:14.168Z,98.30
2023-01-02T00:20:41.021Z,98.30
2023-01-02T00:23:08.646Z,98.30
2023-01-02T00:25:35.505Z,98.30
2023-01-02T00:28:02.552Z,98.30
2023-01-02T00:30:35.765Z,98.30
2023-01-02T00:33:05.494Z,98.30
2023-01-02T00:35:32.150Z,98.30
2023-01-02T00:37:58.889Z,98.30
2023-01-02T00:40:25.610Z,98.30
2023-01-02T00:42:52.263Z,98.30
2023-01-02T00:45:19.028Z,98.30
2023-01-02T00:47:45.733Z,98.30
2023-01-02T00:50:12.450Z,98.30
2023-01-02T00:52:39.158Z,98.30
2023-01-02T00:55:06.103Z,98.30
2023-01-02T00:57:32.870Z,98.30
2023-01-02T00:59:59.579Z,98.30
2023-01-02T01:02:26.564Z,98.30
2023-01-02T01:04:53.354Z,98.30
2023-01-02T01:07:20.042Z,98.30
2023-01-02T01:09:46.694Z,98.30
2023-01-02T01:12:13.437Z,98.30
2023-01-02T01:14:40.103Z,98.30
2023-01-02T01:17:07.164Z,98.30
2023-01-02T01:19:35.684Z,98.30
2023-01-02T01:22:02.621Z,98.30
2023-01-02T01:24:29.471Z,98.30
2023-01-02T01:26:56.260Z,98.30
2023-01-02T01:29:23.064Z,98.30
2023-01-02T01:31:49.920Z,98.30
2023-01-02T01:34:16.655Z,98.30
2023-01-02T01:36:43.354Z,98.30
2023-01-02T01:39:10.039Z,98.30
2023-01-02T01:41:37.183Z,98.30
2023-01-02T01:44:42.772Z,98.30
2023-01-02T01:47:34.646Z,98.30
2023-01-02T01:50:10.679Z,98.30
2023-01-02T01:52:45.260Z,98.30
2023-01-02T01:55:19.839Z,98.30
2023-01-02T01:57:51.489Z,98.30
2023-01-02T02:00:18.271Z,98.30
2023-01-02T02:02:50.342Z,98.30
2023-01-02T02:05:21.853Z,98.30
2023-01-02T02:08:04.422Z,98.30
2023-01-02T02:10:31.149Z,98.30
2023-01-02T02:12:57.895Z,98.30
2023-01-02T02:15:35.894Z,98.30
2023-01-02T02:18:25.713Z,98.30
2023-01-02T02:21:00.617Z,98.30
2023-01-02T02:24:05.194Z,98.30
2023-01-02T02:27:01.086Z,98.30
2023-01-02T02:30:10.558Z,98.30
2023-01-02T02:32:49.351Z,98.30
2023-01-02T02:35:25.466Z,98.30
2023-01-02T02:38:00.234Z,98.30
2023-01-02T02:40:54.575Z,98.30
2023-01-02T02:43:33.312Z,98.30
2023-01-02T02:46:33.272Z,98.30
2023-01-02T02:49:08.065Z,98.30
2023-01-02T02:51:41.636Z,98.30
2023-01-02T02:54:21.691Z,98.30
2023-01-02T02:56:50.071Z,98.30
2023-01-02T02:59:18.457Z,98.30
2023-01-02T03:01:45.356Z,98.30
2023-01-02T03:04:20.293Z,98.30
2023-01-02T03:06:58.750Z,98.30
2023-01-02T03:09:37.348Z,98.30
2023-01-02T03:12:31.236Z,98.30
2023-01-02T03:15:13.731Z,98.30
2023-01-02T03:18:07.494Z,98.30
2023-01-02T03:20:44.270Z,98.30
2023-01-02T03:23:17.976Z,98.30
2023-01-02T03:25:44.970Z,98.30
2023-01-02T03:28:15.101Z,98.30
2023-01-02T03:30:43.904Z,98.30
2023-01-02T03:33:15.340Z,98.30
2023-01-02T03:35:48.326Z,98.30
2023-01-02T03:38:40.788Z,98.30
2023-01-02T03:41:19.438Z,98.30
2023-01-02T03:43:56.554Z,98.30
2023-01-02T03:46:41.861Z,98.30
2023-01-02T03:49:14.741Z,98.30
2023-01-02T03:51:41.836Z,98.30
2023-01-02T03:54:10.396Z,98.30
2023-01-02T03:57:04.918Z,98.30
2023-01-02T03:59:49.079Z,98.30
2023-01-02T04:02:38.861Z,98.30
2023-01-02T04:05:24.535Z,98.30
2023-01-02T04:08:01.539Z,98.30
2023-01-02T04:10:30.279Z,98.30
2023-01-02T04:13:02.831Z,98.30
2023-01-02T04:15:33.750Z,98.30
2023-01-02T04:18:08.081Z,98.30
2023-01-02T04:20:44.958Z,98.30
2023-01-02T04:23:20.613Z,98.30
2023-01-02T04:26:03.302Z,98.30
2023-01-02T04:28:32.960Z,98.30
2023-01-02T04:31:39.766Z,98.30
2023-01-02T04:34:09.677Z,98.30
2023-01-02T04:36:40.504Z,98.30
2023-01-02T04:39:07.622Z,98.30
2023-01-02T04:41:35.277Z,98.30
2023-01-02T04:44:01.984Z,98.30
2023-01-02T04:46:29.739Z,98.30
2023-01-02T04:48:57.015Z,98.30
2023-01-02T04:51:24.404Z,98.30
2023-01-02T04:53:52.768Z,98.30
2023-01-02T04:56:20.069Z,98.30
2023-01-02T04:58:48.048Z,98.30
2023-01-02T05:01:17.611Z,98.30
2023-01-02T05:03:47.334Z,98.30
2023-01-02T05:06:14.658Z,98.30
2023-01-02T05:08:41.897Z,98.30
2023-01-02T05:11:14.660Z,98.30
2023-01-02T05:13:41.804Z,98.30
2023-01-02T05:16:09.632Z,98.30
2023-01-02T05:18:36.615Z,98.30
2023-01-02T05:21:28.618Z,98.30
2023-01-02T05:23:56.427Z,98.30
2023-01-02T05:26:23.239Z,98.30
2023-01-02T05:28:53.158Z,98.30
2023-01-02T05:31:20.394Z,98.30
2023-01-02T05:33:54.595Z,98.30
2023-01-02T05:36:22.927Z,98.30
2023-01-02T05:38:49.891Z,98.30
2023-01-02T05:41:16.805Z,98.30
2023-01-02T05:43:43.502Z,98.30
2023-01-02T05:46:28.481Z,98.30
2023-01-02T05:48:55.239Z,98.30
2023-01-02T05:51:21.978Z,98.30
2023-01-02T05:53:48.725Z,98.30
2023-01-02T05:56:18.240Z,98.30
2023-01-02T05:58:46.909Z,98.30
2023-01-02T06:01:19.424Z,98.30
2023-01-02T06:03:47.448Z,98.30
2023-01-02T06:06:15.396Z,98.30
2023-01-02T06:08:42.309Z,98.30
2023-01-02T06:11:09.287Z,98.30
2023-01-02T06:13:38.231Z,98.30
2023-01-02T06:16:06.806Z,98.30
2023-01-02T06:18:35.549Z,98.30
2023-01-02T06:21:14.325Z,98.30
2023-01-02T06:23:41.914Z,98.30
2023-01-02T06:26:34.289Z,98.30
2023-01-02T06:29:02.360Z,98.30
2023-01-02T06:31:29.670Z,98.30
2023-01-02T06:33:58.082Z,98.30
2023-01-02T06:36:25.853Z,98.30
2023-01-02T06:38:52.628Z,98.30
2023-01-02T06:41:19.427Z,98.30
2023-01-02T06:43:48.607Z,98.30
2023-01-02T06:46:17.625Z,98.30
2023-01-02T06:48:45.321Z,98.30
2023-01-02T06:51:18.378Z,98.30
2023-01-02T06:53:45.889Z,98.30
2023-01-02T06:56:15.233Z,98.30
2023-01-02T06:58:42.162Z,98.30
2023-01-02T07:01:11.666Z,98.30
2023-01-02T07:03:38.415Z,98.30
2023-01-02T07:06:11.511Z,98.30
2023-01-02T07:08:38.737Z,98.30
2023-01-02T07:11:18.525Z,98.30
2023-01-02T07:13:47.503Z,98.30
2023-01-02T07:16:16.877Z,98.30
2023-01-02T07:18:44.297Z,98.30
2023-01-02T07:21:12.216Z,98.30
2023-01-02T07:23:39.161Z,98.30
2023-01-02T07:26:06.893Z,98.30
2023-01-02T07:28:34.552Z,98.30
2023-01-02T07:31:11.119Z,98.30
2023-01-02T07:33:37.910Z,98.30
2023-01-02T07:36:07.654Z,98.30
2023-01-02T07:38:34.830Z,98.30
2023-01-02T07:41:01.519Z,98.30
2023-01-02T07:43:28.251Z,98.30
2023-01-02T07:45:55.287Z,98.30
2023-01-02T07:48:21.948Z,98.30
2023-01-02T07:50:48.721Z,98.30
2023-01-02T07:53:15.410Z,98.30
2023-01-02T07:55:42.081Z,98.30
2023-01-02T07:58:08.829Z,98.30
2023-01-02T08:00:35.484Z,98.30
2023-01-02T08:03:02.180Z,98.30
2023-01-02T08:05:28.923Z,98.30
2023-01-02T08:07:55.629Z,98.30
2023-01-02T08:10:23.004Z,98.30
2023-01-02T08:12:49.675Z,98.30
2023-01-02T08:15:16.554Z,98.30
2023-01-02T08:17:43.299Z,98.30
2023-01-02T08:20:10.818Z,98.30
2023-01-02T08:22:37.611Z,98.30
2023-01-02T08:25:04.754Z,98.30
2023-01-02T08:27:31.730Z,98.30
2023-01-02T08:29:58.551Z,98.30
2023-01-02T08:32:25.350Z,98.30
2023-01-02T08:34:52.166Z,98.30
2023-01-02T08:37:19.197Z,98.30
2023-01-02T08:39:45.861Z,98.30
2023-01-02T08:42:12.572Z,98.30
2023-01-02T08:44:39.282Z,98.30
2023-01-02T08:47:06.165Z,98.30
2023-01-02T08:49:32.826Z,98.30
2023-01-02T08:51:59.518Z,98.30
2023-01-02T08:54:26.174Z,98.30
2023-01-02T08:56:53.267Z,98.30
2023-01-02T08:59:23.015Z,98.30
2023-01-02T09:01:50.149Z,98.30
2023-01-02T09:04:16.908Z,98.30
2023-01-02T09:06:44.486Z,98.30
2023-01-02T09:09:13.140Z,98.30
2023-01-02T09:11:51.479Z,98.30
2023-01-02T09:14:20.111Z,98.30
2023-01-02T09:16:47.635Z,98.30
2023-01-02T09:19:14.333Z,98.30
2023-01-02T09:21:41.326Z,98.30
2023-01-02T09:24:08.965Z,98.30
2023-01-02T09:26:37.908Z,98.30
2023-01-02T09:29:05.073Z,98.30
2023-01-02T09:31:31.853Z,98.30
2023-01-02T09:33:58.571Z,98.30
2023-01-02T09:36:25.315Z,98.30
2023-01-02T09:38:57.455Z,98.30
2023-01-02T09:41:36.974Z,98.30
2023-01-02T09:44:26.834Z,98.30
2023-01-02T09:46:56.355Z,98.30
2023-01-02T09:49:27.569Z,98.30
2023-01-02T09:51:54.699Z,98.30
2023-01-02T09:54:29.137Z,98.20
2023-01-02T09:57:17.312Z,98.30
2023-01-02T09:59:46.945Z,98.20
2023-01-02T10:02:13.690Z,98.30
2023-01-02T10:04:46.226Z,98.20
2023-01-02T10:07:43.156Z,97.90
2023-01-02T10:10:29.851Z,97.50
2023-01-02T10:13:11.914Z,97.60
2023-01-02T10:15:44.753Z,97.30
2023-01-02T10:18:17.964Z,96.90
2023-01-02T10:20:52.285Z,96.40
2023-01-02T10:23:25.303Z,96.10
2023-01-02T10:26:00.449Z,95.60
2023-01-02T10:28:57.501Z,94.90
2023-01-02T10:31:39.557Z,90.90
2023-01-02T10:34:18.926Z,89.10
2023-01-02T10:36:47.312Z,89.30
2023-01-02T10:39:25.097Z,89.30
2023-01-02T10:41:58.553Z,88.50
2023-01-02T10:44:32.622Z,87.00
2023-01-02T10:47:10.227Z,83.50
2023-01-02T10:49:38.505Z,82.10
2023-01-02T10:52:12.902Z,83.10
2023-01-02T10:54:59.555Z,82.30
2023-01-02T10:57:51.292Z,81.30
2023-01-02T11:00:21.343Z,80.60
2023-01-02T11:03:05.285Z,77.80
2023-01-02T11:05:32.269Z,73.50
2023-01-02T11:07:59.428Z,70.60
2023-01-02T11:10:38.659Z,71.60
2023-01-02T11:13:11.376Z,75.50
2023-01-02T11:15:57.685Z,78.20
2023-01-02T11:18:31.199Z,80.40
2023-01-02T11:21:04.354Z,82.90
2023-01-02T11:23:37.030Z,83.80
2023-01-02T11:26:05.514Z,85.00
2023-01-02T11:28:34.690Z,85.30
2023-01-02T11:31:08.148Z,86.60
2023-01-02T11:33:37.482Z,86.60
2023-01-02T11:36:05.241Z,86.80
2023-01-02T11:38:51.535Z,87.60
2023-01-02T11:41:45.593Z,87.80
2023-01-02T11:44:23.354Z,88.20
2023-01-02T11:46:51.020Z,88.70
2023-01-02T11:49:23.209Z,89.30
2023-01-02T11:51:59.354Z,90.10
2023-01-02T11:54:41.559Z,90.60
2023-01-02T11:57:48.659Z,91.00
2023-01-02T12:00:18.608Z,91.70
2023-01-02T12:02:50.882Z,92.10
2023-01-02T12:05:57.625Z,92.30
2023-01-02T12:08:50.842Z,92.80
2023-01-02T12:11:41.560Z,92.60
2023-01-02T12:14:16.743Z,90.20
2023-01-02T12:16:52.038Z,91.00
2023-01-02T12:19:40.165Z,91.90
2023-01-02T12:22:29.296Z,90.40
2023-01-02T12:25:08.291Z,90.50
2023-01-02T12:27:47.607Z,87.80
2023-01-02T12:30:17.914Z,85.10
2023-01-02T12:32:50.377Z,84.50
2023-01-02T12:35:23.151Z,84.30
2023-01-02T12:38:05.603Z,84.70
2023-01-02T12:40:49.882Z,85.00
2023-01-02T12:43:43.568Z,85.50
2023-01-02T12:46:16.149Z,85.20
2023-01-02T12:49:03.900Z,85.40
2023-01-02T12:52:01.465Z,85.30
2023-01-02T12:54:57.562Z,85.70
2023-01-02T12:57:33.099Z,86.00
2023-01-02T13:00:30.007Z,86.10
2023-01-02T13:03:23.501Z,85.90
2023-01-02T13:06:06.357Z,86.20
2023-01-02T13:09:01.756Z,86.20
2023-01-02T13:11:48.520Z,86.20
2023-01-02T13:14:19.991Z,86.60
2023-01-02T13:17:06.869Z,86.60
2023-01-02T13:19:49.909Z,86.80
2023-01-02T13:22:31.767Z,86.90
2023-01-02T13:24:59.783Z,86.70
2023-01-02T13:27:27.051Z,87.30
2023-01-02T13:29:53.966Z,87.20
2023-01-02T13:32:29.855Z,87.20
2023-01-02T13:35:01.008Z,87.50
2023-01-02T13:37:29.201Z,87.80
2023-01-02T13:40:00.509Z,88.70
2023-01-02T13:42:56.017Z,88.50
2023-01-02T13:45:31.170Z,88.30
2023-01-02T13:48:07.288Z,88.70
2023-01-02T13:50:37.512Z,89.00
2023-01-02T13:53:29.823Z,88.80
2023-01-02T13:56:19.471Z,88.40
2023-01-02T13:58:52.250Z,89.00
2023-01-02T14:01:21.820Z,88.70
2023-01-02T14:03:49.087Z,88.40
2023-01-02T14:06:34.879Z,88.60
2023-01-02T14:09:04.368Z,88.40
2023-01-02T14:11:56.937Z,88.70
2023-01-02T14:14:48.445Z,89.10
2023-01-02T14:17:53.098Z,89.10
2023-01-02T14:20:32.323Z,89.50
2023-01-02T14:23:02.685Z,89.30
2023-01-02T14:25:31.843Z,89.60
2023-01-02T14:28:04.465Z,89.90
2023-01-02T14:30:36.189Z,89.80
2023-01-02T14:33:05.734Z,89.90
2023-01-02T14:35:35.762Z,90.20
2023-01-02T14:38:14.797Z,91.20
2023-01-02T14:40:43.065Z,91.80
2023-01-02T14:43:36.415Z,91.90
2023-01-02T14:46:25.376Z,91.50
2023-01-02T14:49:02.739Z,91.80
2023-01-02T14:51:59.447Z,92.30
2023-01-02T14:54:32.800Z,92.40
2023-01-02T14:57:09.818Z,92.50
2023-01-02T14:59:47.349Z,92.20
2023-01-02T15:02:17.545Z,92.10
2023-01-02T15:04:52.632Z,92.20
2023-01-02T15:07:27.283Z,92.50
2023-01-02T15:09:58.751Z,92.80
2023-01-02T15:12:46.855Z,92.80
2023-01-02T15:15:17.860Z,93.10
2023-01-02T15:17:47.214Z,93.50
2023-01-02T15:20:26.090Z,93.60
2023-01-02T15:22:54.156Z,93.20
2023-01-02T15:26:33.868Z,92.90
2023-01-02T15:28:40.667Z,92.90
2023-01-02T15:31:14.398Z,93.10
2023-01-02T15:33:41.812Z,93.40
2023-01-02T15:36:16.061Z,93.30
2023-01-02T15:38:44.025Z,93.40
2023-01-02T15:41:20.476Z,93.30
2023-01-02T15:44:07.766Z,93.20
2023-01-02T15:46:34.814Z,93.00
2023-01-02T15:49:03.934Z,92.70
2023-01-02T15:51:39.753Z,92.60
2023-01-02T15:54:12.290Z,93.10
2023-01-02T15:56:40.720Z,93.20
2023-01-02T15:59:23.940Z,93.60
2023-01-02T16:01:50.655Z,93.90
2023-01-02T16:04:43.747Z,94.10
2023-01-02T16:07:16.095Z,94.20
2023-01-02T16:09:55.397Z,94.10
2023-01-02T16:12:23.518Z,94.10
2023-01-02T16:14:55.564Z,93.90
2023-01-02T16:17:27.674Z,93.60
2023-01-02T16:19:58.784Z,93.50
2023-01-02T16:22:35.425Z,93.20
2023-01-02T16:25:17.554Z,93.40
2023-01-02T16:27:51.809Z,93.40
2023-01-02T16:30:41.100Z,93.50
2023-01-02T16:33:27.587Z,93.30
2023-01-02T16:36:04.395Z,93.10
2023-01-02T16:38:45.292Z,93.00
2023-01-02T16:41:35.052Z,93.20
2023-01-02T16:44:12.896Z,93.50
2023-01-02T16:46:41.068Z,93.80
2023-01-02T16:49:11.390Z,94.10
2023-01-02T16:51:38.064Z,93.50
2023-01-02T16:54:04.778Z,94.00
2023-01-02T16:56:31.530Z,94.80
2023-01-02T16:58:58.215Z,95.80
2023-01-02T17:01:24.919Z,96.40
2023-01-02T17:03:51.748Z,96.90
2023-01-02T17:06:19.602Z,97.40
2023-01-02T17:08:46.326Z,97.80
2023-01-02T17:11:16.332Z,98.20
2023-01-02T17:13:42.988Z,98.30
2023-01-02T17:16:09.726Z,98.20
2023-01-02T17:18:36.748Z,98.30
2023-01-02T17:21:03.672Z,98.30
2023-01-02T17:23:30.613Z,98.30
2023-01-02T17:25:57.420Z,98.30
2023-01-02T17:28:24.347Z,98.30
2023-01-02T17:30:51.324Z,98.30
2023-01-02T17:33:18.452Z,98.30
2023-01-02T17:35:46.214Z,98.30
2023-01-02T17:38:12.903Z,98.30
2023-01-02T17:40:39.630Z,98.30
2023-01-02T17:43:06.367Z,98.30
2023-01-02T17:45:33.119Z,98.30
2023-01-02T17:48:10.559Z,98.30
2023-01-02T17:50:38.751Z,98.30
2023-01-02T17:53:07.123Z,98.30
2023-01-02T17:55:33.886Z,98.30
2023-01-02T17:58:00.910Z,98.30
2023-01-02T18:00:28.490Z,98.30
2023-01-02T18:02:55.359Z,98.30
2023-01-02T18:05:23.067Z,98.30
2023-01-02T18:07:49.933Z,98.30
2023-01-02T18:10:20.418Z,98.30
2023-01-02T18:12:49.595Z,98.30
2023-01-02T18:15:19.514Z,98.30
2023-01-02T18:17:46.502Z,98.30
2023-01-02T18:20:15.708Z,98.30
2023-01-02T18:22:48.966Z,98.30
2023-01-02T18:25:29.764Z,98.30
2023-01-02T18:28:02.639Z,98.30
2023-01-02T18:30:29.666Z,98.30
2023-01-02T18:33:23.629Z,98.30
2023-01-02T18:35:59.604Z,98.30
2023-01-02T18:38:33.740Z,98.30
2023-01-02T18:41:02.046Z,98.30
2023-01-02T18:43:37.656Z,98.30
2023-01-02T18:46:23.181Z,98.30
2023-01-02T18:48:49.931Z,98.30
2023-01-02T18:51:22.930Z,98.30
2023-01-02T18:53:52.151Z,98.30
2023-01-02T18:56:25.281Z,98.30
2023-01-02T18:59:05.899Z,98.30
2023-01-02T19:01:39.413Z,98.30
2023-01-02T19:04:18.978Z,98.30
2023-01-02T19:06:59.541Z,98.30
2023-01-02T19:09:31.699Z,98.30
2023-01-02T19:12:34.766Z,98.30
2023-01-02T19:15:22.205Z,98.30
2023-01-02T19:17:48.869Z,98.30
2023-01-02T19:20:15.677Z,98.30
2023-01-02T19:22:42.928Z,98.30
2023-01-02T19:25:18.901Z,98.30
2023-01-02T19:27:45.576Z,98.30
2023-01-02T19:30:35.629Z,98.30
2023-01-02T19:33:26.161Z,98.30
2023-01-02T19:35:58.291Z,98.30
2023-01-02T19:38:27.899Z,98.30
2023-01-02T19:40:54.740Z,98.30
2023-01-02T19:43:21.635Z,98.30
2023-01-02T19:45:48.342Z,98.20
2023-01-02T19:48:18.218Z,98.00
2023-01-02T19:50:45.559Z,98.30
2023-01-02T19:53:12.217Z,98.10
2023-01-02T19:55:39.152Z,98.20
2023-01-02T19:58:05.907Z,98.30
2023-01-02T20:00:32.851Z,98.30
2023-01-02T20:02:59.760Z,98.30
2023-01-02T20:05:28.498Z,98.30
2023-01-02T20:07:57.878Z,98.30
2023-01-02T20:10:25.136Z,98.30
2023-01-02T20:12:53.256Z,98.30
2023-01-02T20:15:23.541Z,98.00
2023-01-02T20:17:51.468Z,98.10
2023-01-02T20:20:20.859Z,98.20
2023-01-02T20:22:49.252Z,98.00
2023-01-02T20:25:17.349Z,98.00
2023-01-02T20:27:44.027Z,98.10
2023-01-02T20:30:11.556Z,98.00
2023-01-02T20:32:38.281Z,98.10
2023-01-02T20:35:05.679Z,98.10
2023-01-02T20:37:32.372Z,98.20
2023-01-02T20:39:59.064Z,98.30
2023-01-02T20:42:26.850Z,98.30
2023-01-02T20:44:53.569Z,98.30
2023-01-02T20:47:20.330Z,98.30
2023-01-02T20:49:47.085Z,98.30
2023-01-02T20:52:14.122Z,98.30
2023-01-02T20:54:40.889Z,98.30
2023-01-02T20:57:07.565Z,98.30
2023-01-02T20:59:34.260Z,98.30
2023-01-02T21:02:01.043Z,98.30
2023-01-02T21:04:32.562Z,98.30
2023-01-02T21:07:04.185Z,98.30
2023-01-02T21:09:31.108Z,98.30
2023-01-02T21:11:57.751Z,98.30
2023-01-02T21:14:24.383Z,98.30
2023-01-02T21:16:51.058Z,98.30
2023-01-02T21:19:17.736Z,98.30
2023-01-02T21:21:44.370Z,98.30
2023-01-02T21:24:11.011Z,98.30
2023-01-02T21:26:37.741Z,98.30
2023-01-02T21:29:05.184Z,98.30
2023-01-02T21:31:33.920Z,98.30
2023-01-02T21:34:00.664Z,98.30
2023-01-02T21:36:27.376Z,98.30
2023-01-02T21:38:54.006Z,98.30
2023-01-02T21:41:39.146Z,98.30
2023-01-02T21:44:05.862Z,98.30
2023-01-02T21:46:32.551Z,98.30
2023-01-02T21:48:59.236Z,98.30
2023-01-02T21:51:32.191Z,98.30
2023-01-02T21:53:59.297Z,98.30
2023-01-02T21:56:25.927Z,98.30
2023-01-02T21:58:52.685Z,98.30
2023-01-02T22:01:19.388Z,98.30
2023-01-02T22:03:46.266Z,98.30
2023-01-02T22:06:12.961Z,98.30
2023-01-02T22:08:39.615Z,98.30
2023-01-02T22:11:25.059Z,98.30
2023-01-02T22:13:51.728Z,98.30
2023-01-02T22:16:18.444Z,98.30
2023-01-02T22:18:45.133Z,98.30
2023-01-02T22:21:11.781Z,98.30
2023-01-02T22:23:38.397Z,98.30
2023-01-02T22:26:05.219Z,98.30
2023-01-02T22:28:31.876Z,98.30
2023-01-02T22:30:58.550Z,98.30
2023-01-02T22:33:25.351Z,98.30
2023-01-02T22:35:52.286Z,98.30
2023-01-02T22:38:18.944Z,98.30
2023-01-02T22:40:46.209Z,98.30
2023-01-02T22:43:19.274Z,98.30
2023-01-02T22:45:52.601Z,98.30
2023-01-02T22:48:33.092Z,98.30
2023-01-02T22:51:01.280Z,98.30
2023-01-02T22:53:31.892Z,98.30
2023-01-02T22:55:59.752Z,98.30
2023-01-02T22:58:26.498Z,98.30
2023-01-02T23:01:07.055Z,98.30
2023-01-02T23:03:41.517Z,98.30
2023-01-02T23:06:08.575Z,98.30
2023-01-02T23:08:35.638Z,98.30
2023-01-02T23:11:03.317Z,98.30
2023-01-02T23:13:31.573Z,98.30
2023-01-02T23:16:16.916Z,98.30
2023-01-02T23:19:02.346Z,98.30
2023-01-02T23:21:31.195Z,98.30
2023-01-02T23:23:58.249Z,98.30
2023-01-02T23:26:28.523Z,98.30
2023-01-02T23:29:11.457Z,98.30
2023-01-02T23:31:40.797Z,98.30
2023-01-02T23:34:08.563Z,98.30
2023-01-02T23:36:36.211Z,98.30
2023-01-02T23:39:04.590Z,98.30
2023-01-02T23:41:31.255Z,98.30
2023-01-02T23:43:58.017Z,98.30
2023-01-02T23:46:24.715Z,98.30
2023-01-02T23:48:51.616Z,98.30
2023-01-02T23:51:18.496Z,98.30
2023-01-02T23:53:45.279Z,98.30
2023-01-02T23:56:24.056Z,98.30
2023-01-02T23:58:54.277Z,98.30
